sensor_id;sensor_type;location;lat;lon;timestamp;pressure;altitude;pressure_sealevel;temperature;humidity
74327;BME280;62745;51.060;13.786;2024-03-23T00:53:47;99359.63;;;9.60;100.00
74327;BME280;62745;51.060;13.786;2024-03-23T00:56:12;99360.44;;;9.68;100.00
74327;BME280;62745;51.060;13.786;2024-03-23T00:58:38;99350.22;;;9.51;100.00
74327;BME280;62745;51.060;13.786;2024-03-23T01:01:03;99361.09;;;9.50;100.00
74327;BME280;62745;51.060;13.786;2024-03-23T01:03:29;99363.56;;;9.45;100.00
74327;BME280;62745;51.060;13.786;2024-03-23T01:06:01;99371.31;;;9.40;100.00
74327;BME280;62745;51.060;13.786;2024-03-23T01:08:27;99362.09;;;9.22;100.00
74327;BME280;62745;51.060;13.786;2024-03-23T01:11:00;99367.44;;;9.22;100.00
74327;BME280;62745;51.060;13.786;2024-03-23T01:13:27;99369.69;;;9.19;100.00
74327;BME280;62745;51.060;13.786;2024-03-23T01:15:53;99365.19;;;9.13;100.00
74327;BME280;62745;51.060;13.786;2024-03-23T01:18:20;99352.69;;;9.20;100.00
74327;BME280;62745;51.060;13.786;2024-03-23T01:20:46;99354.13;;;9.16;100.00
74327;BME280;62745;51.060;13.786;2024-03-23T01:23:12;99340.78;;;9.02;100.00
74327;BME280;62745;51.060;13.786;2024-03-23T01:25:37;99337.94;;;9.17;100.00
74327;BME280;62745;51.060;13.786;2024-03-23T01:28:03;99332.81;;;9.09;100.00
74327;BME280;62745;51.060;13.786;2024-03-23T01:30:29;99330.34;;;9.21;100.00
74327;BME280;62745;51.060;13.786;2024-03-23T01:32:55;99306.78;;;9.04;100.00
74327;BME280;62745;51.060;13.786;2024-03-23T01:35:21;99333.41;;;9.04;100.00
74327;BME280;62745;51.060;13.786;2024-03-23T01:37:46;99323.16;;;8.82;100.00
74327;BME280;62745;51.060;13.786;2024-03-23T01:40:12;99330.50;;;8.73;100.00
74327;BME280;62745;51.060;13.786;2024-03-23T01:42:40;99319.88;;;8.60;100.00
74327;BME280;62745;51.060;13.786;2024-03-23T01:45:07;99321.28;;;8.56;100.00
74327;BME280;62745;51.060;13.786;2024-03-23T01:47:34;99320.06;;;8.58;100.00
74327;BME280;62745;51.060;13.786;2024-03-23T01:49:59;99298.97;;;8.63;100.00
74327;BME280;62745;51.060;13.786;2024-03-23T01:52:26;99298.97;;;8.70;100.00
74327;BME280;62745;51.060;13.786;2024-03-23T01:54:53;99302.47;;;9.03;100.00
74327;BME280;62745;51.060;13.786;2024-03-23T01:57:19;99293.88;;;8.95;100.00
74327;BME280;62745;51.060;13.786;2024-03-23T01:59:46;99302.28;;;8.79;100.00
74327;BME280;62745;51.060;13.786;2024-03-23T02:02:12;99305.94;;;8.64;100.00
74327;BME280;62745;51.060;13.786;2024-03-23T02:04:37;99291.78;;;8.44;100.00
74327;BME280;62745;51.060;13.786;2024-03-23T02:07:03;99289.53;;;8.54;100.00
74327;BME280;62745;51.060;13.786;2024-03-23T02:09:30;99287.31;;;8.78;100.00
74327;BME280;62745;51.060;13.786;2024-03-23T02:11:57;99287.91;;;8.73;100.00
74327;BME280;62745;51.060;13.786;2024-03-23T02:14:22;99294.91;;;8.74;100.00
74327;BME280;62745;51.060;13.786;2024-03-23T02:16:48;99279.53;;;8.76;100.00
74327;BME280;62745;51.060;13.786;2024-03-23T02:19:13;99274.81;;;8.85;100.00
74327;BME280;62745;51.060;13.786;2024-03-23T02:21:39;99274.63;;;8.99;100.00
74327;BME280;62745;51.060;13.786;2024-03-23T02:24:04;99262.94;;;8.81;100.00
74327;BME280;62745;51.060;13.786;2024-03-23T02:26:30;99274.41;;;9.08;100.00
74327;BME280;62745;51.060;13.786;2024-03-23T02:28:55;99266.00;;;9.04;100.00
74327;BME280;62745;51.060;13.786;2024-03-23T02:31:21;99262.72;;;8.89;100.00
74327;BME280;62745;51.060;13.786;2024-03-23T02:33:46;99253.72;;;8.83;100.00
74327;BME280;62745;51.060;13.786;2024-03-23T02:36:12;99251.84;;;9.03;100.00
74327;BME280;62745;51.060;13.786;2024-03-23T02:38:37;99247.78;;;8.94;100.00
74327;BME280;62745;51.060;13.786;2024-03-23T02:41:03;99245.88;;;9.21;100.00
74327;BME280;62745;51.060;13.786;2024-03-23T02:43:29;99243.22;;;9.28;100.00
74327;BME280;62745;51.060;13.786;2024-03-23T02:45:54;99242.44;;;9.14;100.00
74327;BME280;62745;51.060;13.786;2024-03-23T02:48:20;99246.72;;;9.28;100.00
74327;BME280;62745;51.060;13.786;2024-03-23T02:50:45;99239.13;;;9.19;100.00
74327;BME280;62745;51.060;13.786;2024-03-23T02:53:11;99221.94;;;9.01;100.00
74327;BME280;62745;51.060;13.786;2024-03-23T02:55:36;99231.38;;;9.04;100.00
74327;BME280;62745;51.060;13.786;2024-03-23T02:58:02;99234.25;;;9.02;100.00
74327;BME280;62745;51.060;13.786;2024-03-23T03:00:28;99241.19;;;9.17;100.00
74327;BME280;62745;51.060;13.786;2024-03-23T03:02:54;99239.34;;;9.17;100.00
74327;BME280;62745;51.060;13.786;2024-03-23T03:05:19;99236.09;;;9.09;100.00
74327;BME280;62745;51.060;13.786;2024-03-23T03:07:45;99226.41;;;9.41;100.00
74327;BME280;62745;51.060;13.786;2024-03-23T03:10:10;99218.78;;;9.44;100.00
74327;BME280;62745;51.060;13.786;2024-03-23T03:12:37;99222.13;;;9.26;100.00
74327;BME280;62745;51.060;13.786;2024-03-23T03:15:04;99215.69;;;9.47;100.00
74327;BME280;62745;51.060;13.786;2024-03-23T03:17:30;99212.81;;;9.49;100.00
74327;BME280;62745;51.060;13.786;2024-03-23T03:19:56;99211.66;;;9.31;100.00
74327;BME280;62745;51.060;13.786;2024-03-23T03:22:24;99192.38;;;9.23;100.00
74327;BME280;62745;51.060;13.786;2024-03-23T03:24:50;99187.72;;;9.05;100.00
74327;BME280;62745;51.060;13.786;2024-03-23T03:27:16;99185.50;;;8.89;100.00
74327;BME280;62745;51.060;13.786;2024-03-23T03:29:42;99174.28;;;8.73;100.00
74327;BME280;62745;51.060;13.786;2024-03-23T03:32:07;99200.03;;;8.99;100.00
74327;BME280;62745;51.060;13.786;2024-03-23T03:34:33;99185.09;;;8.85;100.00
74327;BME280;62745;51.060;13.786;2024-03-23T03:37:00;99193.69;;;9.00;100.00
74327;BME280;62745;51.060;13.786;2024-03-23T03:39:25;99179.34;;;8.88;100.00
74327;BME280;62745;51.060;13.786;2024-03-23T03:41:51;99191.19;;;9.05;100.00
74327;BME280;62745;51.060;13.786;2024-03-23T03:44:17;99187.13;;;8.96;100.00
74327;BME280;62745;51.060;13.786;2024-03-23T03:46:43;99188.97;;;8.96;100.00
74327;BME280;62745;51.060;13.786;2024-03-23T03:49:08;99176.47;;;9.10;100.00
74327;BME280;62745;51.060;13.786;2024-03-23T03:55:15;99175.28;;;8.79;100.00
74327;BME280;62745;51.060;13.786;2024-03-23T03:57:41;99173.25;;;8.74;100.00
74327;BME280;62745;51.060;13.786;2024-03-23T04:00:07;99153.16;;;8.72;100.00
74327;BME280;62745;51.060;13.786;2024-03-23T04:02:39;99152.34;;;8.71;100.00
74327;BME280;62745;51.060;13.786;2024-03-23T04:05:05;99148.63;;;8.72;100.00
74327;BME280;62745;51.060;13.786;2024-03-23T04:07:31;99145.97;;;8.79;100.00
74327;BME280;62745;51.060;13.786;2024-03-23T04:09:57;99155.44;;;8.62;100.00
74327;BME280;62745;51.060;13.786;2024-03-23T04:12:23;99140.91;;;8.58;100.00
74327;BME280;62745;51.060;13.786;2024-03-23T04:14:48;99132.28;;;8.56;100.00
74327;BME280;62745;51.060;13.786;2024-03-23T04:17:14;99140.28;;;8.49;100.00
74327;BME280;62745;51.060;13.786;2024-03-23T04:19:39;99141.31;;;8.41;100.00
74327;BME280;62745;51.060;13.786;2024-03-23T04:22:05;99133.09;;;8.30;100.00
74327;BME280;62745;51.060;13.786;2024-03-23T04:24:30;99118.38;;;8.27;100.00
74327;BME280;62745;51.060;13.786;2024-03-23T04:26:56;99128.78;;;8.29;100.00
74327;BME280;62745;51.060;13.786;2024-03-23T04:29:21;99129.59;;;8.23;100.00
74327;BME280;62745;51.060;13.786;2024-03-23T04:31:47;99129.41;;;8.11;100.00
74327;BME280;62745;51.060;13.786;2024-03-23T04:34:13;99101.97;;;8.04;100.00
74327;BME280;62745;51.060;13.786;2024-03-23T04:36:38;99102.59;;;7.99;100.00
74327;BME280;62745;51.060;13.786;2024-03-23T04:39:05;99101.75;;;7.79;100.00
74327;BME280;62745;51.060;13.786;2024-03-23T04:41:34;99098.88;;;7.67;100.00
74327;BME280;62745;51.060;13.786;2024-03-23T04:44:00;99098.25;;;7.59;100.00
74327;BME280;62745;51.060;13.786;2024-03-23T04:46:25;99100.47;;;7.55;100.00
74327;BME280;62745;51.060;13.786;2024-03-23T04:48:51;99100.28;;;7.63;100.00
74327;BME280;62745;51.060;13.786;2024-03-23T04:51:21;99098.66;;;7.62;100.00
74327;BME280;62745;51.060;13.786;2024-03-23T04:53:47;99090.66;;;7.55;100.00
74327;BME280;62745;51.060;13.786;2024-03-23T04:56:14;99080.91;;;7.76;100.00
74327;BME280;62745;51.060;13.786;2024-03-23T04:58:40;99060.00;;;7.53;100.00
74327;BME280;62745;51.060;13.786;2024-03-23T05:01:05;99046.66;;;7.33;100.00
74327;BME280;62745;51.060;13.786;2024-03-23T05:03:31;99043.41;;;7.31;100.00
74327;BME280;62745;51.060;13.786;2024-03-23T05:05:56;99039.31;;;7.29;100.00
74327;BME280;62745;51.060;13.786;2024-03-23T05:08:22;99012.09;;;7.20;100.00
74327;BME280;62745;51.060;13.786;2024-03-23T05:10:48;99014.16;;;7.24;100.00
74327;BME280;62745;51.060;13.786;2024-03-23T05:13:13;99015.38;;;7.22;100.00
74327;BME280;62745;51.060;13.786;2024-03-23T05:15:39;99023.97;;;7.24;100.00
74327;BME280;62745;51.060;13.786;2024-03-23T05:18:05;99018.28;;;7.40;100.00
74327;BME280;62745;51.060;13.786;2024-03-23T05:20:31;99011.13;;;7.41;100.00
74327;BME280;62745;51.060;13.786;2024-03-23T05:22:56;99010.50;;;7.39;100.00
74327;BME280;62745;51.060;13.786;2024-03-23T05:25:22;99014.81;;;7.40;100.00
74327;BME280;62745;51.060;13.786;2024-03-23T05:27:48;99005.84;;;7.74;100.00
74327;BME280;62745;51.060;13.786;2024-03-23T05:30:13;98998.28;;;7.77;100.00
74327;BME280;62745;51.060;13.786;2024-03-23T05:32:39;98982.97;;;7.73;100.00
74327;BME280;62745;51.060;13.786;2024-03-23T05:35:09;98974.34;;;7.84;100.00
74327;BME280;62745;51.060;13.786;2024-03-23T05:37:34;98992.75;;;7.92;100.00
74327;BME280;62745;51.060;13.786;2024-03-23T05:40:00;98981.50;;;7.90;100.00
74327;BME280;62745;51.060;13.786;2024-03-23T05:42:26;98978.44;;;8.06;100.00
74327;BME280;62745;51.060;13.786;2024-03-23T05:44:52;98973.50;;;8.03;100.00
74327;BME280;62745;51.060;13.786;2024-03-23T05:50:39;98973.66;;;8.35;100.00
74327;BME280;62745;51.060;13.786;2024-03-23T05:53:05;98971.41;;;8.38;100.00
74327;BME280;62745;51.060;13.786;2024-03-23T05:55:31;98974.06;;;8.45;100.00
74327;BME280;62745;51.060;13.786;2024-03-23T05:57:57;98976.59;;;8.71;100.00
74327;BME280;62745;51.060;13.786;2024-03-23T06:04:12;98947.16;;;8.66;100.00
74327;BME280;62745;51.060;13.786;2024-03-23T06:07:03;98937.47;;;8.79;100.00
74327;BME280;62745;51.060;13.786;2024-03-23T06:09:32;98933.22;;;9.02;100.00
74327;BME280;62745;51.060;13.786;2024-03-23T06:11:58;98924.50;;;8.89;100.00
74327;BME280;62745;51.060;13.786;2024-03-23T06:14:24;98918.50;;;9.00;100.00
74327;BME280;62745;51.060;13.786;2024-03-23T06:16:50;98907.97;;;8.80;100.00
74327;BME280;62745;51.060;13.786;2024-03-23T06:19:15;98895.72;;;8.72;100.00
74327;BME280;62745;51.060;13.786;2024-03-23T06:21:44;98890.19;;;8.74;100.00
74327;BME280;62745;51.060;13.786;2024-03-23T06:24:11;98875.22;;;8.73;100.00
74327;BME280;62745;51.060;13.786;2024-03-23T06:26:37;98875.84;;;8.75;100.00
74327;BME280;62745;51.060;13.786;2024-03-23T06:29:02;98884.28;;;8.65;100.00
74327;BME280;62745;51.060;13.786;2024-03-23T06:31:28;98883.53;;;8.52;100.00
74327;BME280;62745;51.060;13.786;2024-03-23T06:33:55;98880.09;;;8.44;100.00
74327;BME280;62745;51.060;13.786;2024-03-23T06:36:20;98871.09;;;8.39;100.00
74327;BME280;62745;51.060;13.786;2024-03-23T06:38:46;98863.34;;;8.37;100.00
74327;BME280;62745;51.060;13.786;2024-03-23T06:41:11;98861.13;;;8.28;100.00
74327;BME280;62745;51.060;13.786;2024-03-23T06:43:37;98850.84;;;8.31;100.00
74327;BME280;62745;51.060;13.786;2024-03-23T06:46:03;98840.00;;;8.39;100.00
74327;BME280;62745;51.060;13.786;2024-03-23T06:48:30;98836.75;;;8.69;100.00
74327;BME280;62745;51.060;13.786;2024-03-23T06:50:56;98821.88;;;8.61;100.00
74327;BME280;62745;51.060;13.786;2024-03-23T06:53:22;98821.81;;;8.68;100.00
74327;BME280;62745;51.060;13.786;2024-03-23T06:55:54;98820.47;;;8.59;100.00
74327;BME280;62745;51.060;13.786;2024-03-23T06:58:21;98823.34;;;8.57;100.00
74327;BME280;62745;51.060;13.786;2024-03-23T07:00:47;98812.34;;;8.47;100.00
74327;BME280;62745;51.060;13.786;2024-03-23T07:03:13;98817.44;;;8.49;100.00
74327;BME280;62745;51.060;13.786;2024-03-23T07:05:39;98819.34;;;8.41;100.00
74327;BME280;62745;51.060;13.786;2024-03-23T07:08:05;98812.63;;;8.26;100.00
74327;BME280;62745;51.060;13.786;2024-03-23T07:10:30;98820.00;;;8.24;100.00
74327;BME280;62745;51.060;13.786;2024-03-23T07:12:56;98826.16;;;8.18;100.00
74327;BME280;62745;51.060;13.786;2024-03-23T07:15:21;98833.09;;;8.19;100.00
74327;BME280;62745;51.060;13.786;2024-03-23T07:17:47;98826.75;;;8.20;100.00
74327;BME280;62745;51.060;13.786;2024-03-23T07:20:13;98830.22;;;8.20;100.00
74327;BME280;62745;51.060;13.786;2024-03-23T07:22:39;98827.00;;;8.11;100.00
74327;BME280;62745;51.060;13.786;2024-03-23T07:25:05;98812.59;;;8.32;100.00
74327;BME280;62745;51.060;13.786;2024-03-23T07:27:31;98788.03;;;8.37;100.00
74327;BME280;62745;51.060;13.786;2024-03-23T07:29:57;98792.06;;;8.46;100.00
74327;BME280;62745;51.060;13.786;2024-03-23T07:32:23;98780.84;;;8.44;100.00
74327;BME280;62745;51.060;13.786;2024-03-23T07:38:22;98772.56;;;8.52;100.00
74327;BME280;62745;51.060;13.786;2024-03-23T07:40:47;98758.53;;;8.95;100.00
74327;BME280;62745;51.060;13.786;2024-03-23T07:43:15;98746.75;;;9.09;100.00
74327;BME280;62745;51.060;13.786;2024-03-23T07:45:41;98743.53;;;9.00;100.00
74327;BME280;62745;51.060;13.786;2024-03-23T07:48:06;98741.78;;;9.13;100.00
74327;BME280;62745;51.060;13.786;2024-03-23T07:50:32;98731.06;;;9.19;100.00
74327;BME280;62745;51.060;13.786;2024-03-23T07:52:57;98726.09;;;9.23;100.00
74327;BME280;62745;51.060;13.786;2024-03-23T07:55:23;98714.94;;;9.32;100.00
74327;BME280;62745;51.060;13.786;2024-03-23T07:57:51;98724.09;;;9.37;100.00
74327;BME280;62745;51.060;13.786;2024-03-23T08:00:17;98710.63;;;9.31;100.00
74327;BME280;62745;51.060;13.786;2024-03-23T08:02:42;98718.31;;;9.40;100.00
74327;BME280;62745;51.060;13.786;2024-03-23T08:05:08;98699.84;;;9.45;100.00
74327;BME280;62745;51.060;13.786;2024-03-23T08:07:33;98698.03;;;9.39;100.00
74327;BME280;62745;51.060;13.786;2024-03-23T08:09:59;98690.78;;;9.64;100.00
74327;BME280;62745;51.060;13.786;2024-03-23T08:12:25;98681.59;;;9.78;100.00
74327;BME280;62745;51.060;13.786;2024-03-23T08:14:50;98686.69;;;9.80;100.00
74327;BME280;62745;51.060;13.786;2024-03-23T08:17:16;98685.69;;;9.92;100.00
74327;BME280;62745;51.060;13.786;2024-03-23T08:19:41;98662.63;;;9.98;100.00
74327;BME280;62745;51.060;13.786;2024-03-23T08:22:07;98650.69;;;10.01;100.00
74327;BME280;62745;51.060;13.786;2024-03-23T08:24:34;98647.75;;;9.90;100.00
74327;BME280;62745;51.060;13.786;2024-03-23T08:26:59;98660.78;;;9.69;100.00
74327;BME280;62745;51.060;13.786;2024-03-23T08:29:25;98639.56;;;10.04;100.00
74327;BME280;62745;51.060;13.786;2024-03-23T08:31:50;98645.41;;;10.12;100.00
74327;BME280;62745;51.060;13.786;2024-03-23T08:34:16;98639.06;;;10.37;100.00
74327;BME280;62745;51.060;13.786;2024-03-23T08:36:41;98618.44;;;10.55;100.00
74327;BME280;62745;51.060;13.786;2024-03-23T08:39:07;98623.91;;;10.49;100.00
74327;BME280;62745;51.060;13.786;2024-03-23T08:41:32;98620.88;;;10.45;100.00
74327;BME280;62745;51.060;13.786;2024-03-23T08:43:58;98616.44;;;10.28;100.00
74327;BME280;62745;51.060;13.786;2024-03-23T08:46:24;98629.88;;;10.21;100.00
74327;BME280;62745;51.060;13.786;2024-03-23T08:48:49;98639.28;;;10.23;100.00
74327;BME280;62745;51.060;13.786;2024-03-23T08:51:16;98633.69;;;10.13;100.00
74327;BME280;62745;51.060;13.786;2024-03-23T08:53:42;98634.50;;;10.14;100.00
74327;BME280;62745;51.060;13.786;2024-03-23T08:56:08;98640.81;;;10.31;100.00
74327;BME280;62745;51.060;13.786;2024-03-23T08:58:35;98637.09;;;10.32;100.00
74327;BME280;62745;51.060;13.786;2024-03-23T09:01:12;98639.88;;;10.37;100.00
74327;BME280;62745;51.060;13.786;2024-03-23T09:03:38;98645.47;;;10.36;100.00
74327;BME280;62745;51.060;13.786;2024-03-23T09:06:11;98628.19;;;10.62;100.00
74327;BME280;62745;51.060;13.786;2024-03-23T09:08:37;98634.91;;;10.88;100.00
74327;BME280;62745;51.060;13.786;2024-03-23T09:11:21;98641.09;;;10.76;100.00
74327;BME280;62745;51.060;13.786;2024-03-23T09:13:46;98634.34;;;10.97;100.00
74327;BME280;62745;51.060;13.786;2024-03-23T09:16:12;98644.75;;;11.22;100.00
74327;BME280;62745;51.060;13.786;2024-03-23T09:18:38;98637.91;;;11.26;100.00
74327;BME280;62745;51.060;13.786;2024-03-23T09:21:04;98639.84;;;11.31;100.00
74327;BME280;62745;51.060;13.786;2024-03-23T09:23:35;98638.25;;;11.18;100.00
74327;BME280;62745;51.060;13.786;2024-03-23T09:26:04;98646.50;;;11.28;100.00
74327;BME280;62745;51.060;13.786;2024-03-23T09:28:30;98644.41;;;11.19;100.00
74327;BME280;62745;51.060;13.786;2024-03-23T09:31:02;98635.00;;;11.16;100.00
74327;BME280;62745;51.060;13.786;2024-03-23T09:33:28;98648.94;;;11.18;100.00
74327;BME280;62745;51.060;13.786;2024-03-23T09:35:54;98653.94;;;11.14;100.00
74327;BME280;62745;51.060;13.786;2024-03-23T09:42:03;98656.81;;;12.05;100.00
74327;BME280;62745;51.060;13.786;2024-03-23T09:44:29;98683.84;;;11.92;100.00
74327;BME280;62745;51.060;13.786;2024-03-23T09:46:55;98694.22;;;11.36;100.00
74327;BME280;62745;51.060;13.786;2024-03-23T09:49:21;98699.63;;;11.01;100.00
74327;BME280;62745;51.060;13.786;2024-03-23T09:51:46;98737.53;;;10.45;100.00
74327;BME280;62745;51.060;13.786;2024-03-23T09:54:12;98722.41;;;10.09;100.00
74327;BME280;62745;51.060;13.786;2024-03-23T09:56:37;98738.16;;;9.80;100.00
74327;BME280;62745;51.060;13.786;2024-03-23T09:59:03;98762.91;;;9.51;100.00
74327;BME280;62745;51.060;13.786;2024-03-23T10:01:30;98770.50;;;9.11;100.00
74327;BME280;62745;51.060;13.786;2024-03-23T10:03:55;98812.63;;;8.64;100.00
74327;BME280;62745;51.060;13.786;2024-03-23T10:06:24;98826.00;;;8.06;100.00
74327;BME280;62745;51.060;13.786;2024-03-23T10:08:53;98836.91;;;7.91;100.00
74327;BME280;62745;51.060;13.786;2024-03-23T10:11:20;98833.41;;;7.97;100.00
74327;BME280;62745;51.060;13.786;2024-03-23T10:13:47;98853.31;;;7.75;100.00
74327;BME280;62745;51.060;13.786;2024-03-23T10:16:21;98872.75;;;7.49;100.00
74327;BME280;62745;51.060;13.786;2024-03-23T10:18:47;98894.25;;;7.41;100.00
74327;BME280;62745;51.060;13.786;2024-03-23T10:21:14;98918.50;;;7.05;100.00
74327;BME280;62745;51.060;13.786;2024-03-23T10:23:41;98932.69;;;6.57;100.00
74327;BME280;62745;51.060;13.786;2024-03-23T10:26:21;98940.47;;;6.18;100.00
74327;BME280;62745;51.060;13.786;2024-03-23T10:31:17;98981.81;;;5.84;100.00
74327;BME280;62745;51.060;13.786;2024-03-23T10:33:46;98995.03;;;5.78;100.00
74327;BME280;62745;51.060;13.786;2024-03-23T10:36:12;99001.56;;;5.82;100.00
74327;BME280;62745;51.060;13.786;2024-03-23T10:38:53;99036.38;;;5.72;100.00
74327;BME280;62745;51.060;13.786;2024-03-23T10:41:19;99055.03;;;5.64;100.00
74327;BME280;62745;51.060;13.786;2024-03-23T10:43:46;99057.69;;;5.42;100.00
74327;BME280;62745;51.060;13.786;2024-03-23T10:46:12;99089.06;;;5.24;100.00
74327;BME280;62745;51.060;13.786;2024-03-23T10:48:38;99097.91;;;5.17;100.00
74327;BME280;62745;51.060;13.786;2024-03-23T10:51:06;99119.56;;;5.05;100.00
74327;BME280;62745;51.060;13.786;2024-03-23T10:53:33;99127.16;;;4.94;100.00
74327;BME280;62745;51.060;13.786;2024-03-23T10:55:59;99149.88;;;4.88;100.00
74327;BME280;62745;51.060;13.786;2024-03-23T10:58:36;99163.28;;;4.72;100.00
74327;BME280;62745;51.060;13.786;2024-03-23T11:01:03;99170.66;;;4.76;100.00
74327;BME280;62745;51.060;13.786;2024-03-23T11:03:37;99176.72;;;4.47;100.00
74327;BME280;62745;51.060;13.786;2024-03-23T11:06:04;99180.22;;;4.63;100.00
74327;BME280;62745;51.060;13.786;2024-03-23T11:08:34;99189.34;;;4.60;100.00
74327;BME280;62745;51.060;13.786;2024-03-23T11:11:20;99201.19;;;4.64;100.00
74327;BME280;62745;51.060;13.786;2024-03-23T11:13:51;99199.50;;;4.71;100.00
74327;BME280;62745;51.060;13.786;2024-03-23T11:18:43;99197.50;;;4.88;100.00
74327;BME280;62745;51.060;13.786;2024-03-23T11:21:10;99174.31;;;5.20;100.00
74327;BME280;62745;51.060;13.786;2024-03-23T11:24:13;99187.53;;;5.20;100.00
74327;BME280;62745;51.060;13.786;2024-03-23T11:26:51;99183.25;;;5.19;100.00
74327;BME280;62745;51.060;13.786;2024-03-23T11:29:17;99182.97;;;5.43;100.00
74327;BME280;62745;51.060;13.786;2024-03-23T11:31:53;99190.78;;;5.51;100.00
74327;BME280;62745;51.060;13.786;2024-03-23T11:34:19;99196.97;;;5.22;100.00
74327;BME280;62745;51.060;13.786;2024-03-23T11:36:46;99225.16;;;5.00;100.00
74327;BME280;62745;51.060;13.786;2024-03-23T11:39:15;99214.72;;;4.84;100.00
74327;BME280;62745;51.060;13.786;2024-03-23T11:42:00;99240.47;;;4.75;100.00
74327;BME280;62745;51.060;13.786;2024-03-23T11:44:26;99248.28;;;4.69;100.00
74327;BME280;62745;51.060;13.786;2024-03-23T11:46:52;99245.47;;;4.85;100.00
74327;BME280;62745;51.060;13.786;2024-03-23T11:49:28;99252.03;;;4.74;100.00
74327;BME280;62745;51.060;13.786;2024-03-23T11:51:57;99245.19;;;4.80;100.00
74327;BME280;62745;51.060;13.786;2024-03-23T11:54:26;99268.94;;;5.03;100.00
74327;BME280;62745;51.060;13.786;2024-03-23T11:56:59;99267.47;;;4.86;100.00
74327;BME280;62745;51.060;13.786;2024-03-23T11:59:33;99255.25;;;4.84;100.00
74327;BME280;62745;51.060;13.786;2024-03-23T12:01:59;99267.47;;;4.86;100.00
74327;BME280;62745;51.060;13.786;2024-03-23T12:04:26;99258.66;;;5.08;100.00
74327;BME280;62745;51.060;13.786;2024-03-23T12:07:09;99256.72;;;5.02;100.00
74327;BME280;62745;51.060;13.786;2024-03-23T12:09:35;99246.69;;;4.97;100.00
74327;BME280;62745;51.060;13.786;2024-03-23T12:12:09;99256.53;;;5.03;100.00
74327;BME280;62745;51.060;13.786;2024-03-23T12:14:34;99253.22;;;4.87;100.00
74327;BME280;62745;51.060;13.786;2024-03-23T12:17:13;99258.00;;;4.91;100.00
74327;BME280;62745;51.060;13.786;2024-03-23T12:19:39;99253.91;;;4.89;100.00
74327;BME280;62745;51.060;13.786;2024-03-23T12:22:07;99263.56;;;4.96;100.00
74327;BME280;62745;51.060;13.786;2024-03-23T12:24:32;99262.16;;;5.23;100.00
74327;BME280;62745;51.060;13.786;2024-03-23T12:29:29;99261.22;;;5.16;100.00
74327;BME280;62745;51.060;13.786;2024-03-23T12:31:54;99264.06;;;5.29;100.00
74327;BME280;62745;51.060;13.786;2024-03-23T12:34:21;99260.59;;;5.43;100.00
74327;BME280;62745;51.060;13.786;2024-03-23T12:36:46;99252.47;;;5.45;100.00
74327;BME280;62745;51.060;13.786;2024-03-23T12:39:12;99255.94;;;5.31;100.00
74327;BME280;62745;51.060;13.786;2024-03-23T12:41:37;99250.63;;;5.31;100.00
74327;BME280;62745;51.060;13.786;2024-03-23T12:44:03;99240.59;;;5.41;100.00
74327;BME280;62745;51.060;13.786;2024-03-23T12:46:28;99233.75;;;5.83;100.00
74327;BME280;62745;51.060;13.786;2024-03-23T12:48:54;99234.53;;;6.13;100.00
74327;BME280;62745;51.060;13.786;2024-03-23T12:51:19;99258.56;;;5.90;100.00
74327;BME280;62745;51.060;13.786;2024-03-23T12:53:45;99276.94;;;5.62;100.00
74327;BME280;62745;51.060;13.786;2024-03-23T12:56:14;99286.44;;;5.41;100.00
74327;BME280;62745;51.060;13.786;2024-03-23T12:58:39;99288.72;;;5.59;100.00
74327;BME280;62745;51.060;13.786;2024-03-23T13:01:05;99306.59;;;5.28;100.00
74327;BME280;62745;51.060;13.786;2024-03-23T13:03:31;99303.84;;;5.36;100.00
74327;BME280;62745;51.060;13.786;2024-03-23T13:05:57;99301.88;;;5.38;100.00
74327;BME280;62745;51.060;13.786;2024-03-23T13:08:23;99294.75;;;5.38;100.00
74327;BME280;62745;51.060;13.786;2024-03-23T13:10:52;99283.34;;;5.38;100.00
74327;BME280;62745;51.060;13.786;2024-03-23T13:13:17;99272.94;;;5.22;100.00
74327;BME280;62745;51.060;13.786;2024-03-23T13:15:49;99277.13;;;5.31;100.00
74327;BME280;62745;51.060;13.786;2024-03-23T13:18:15;99263.59;;;5.55;100.00
74327;BME280;62745;51.060;13.786;2024-03-23T13:20:40;99276.03;;;5.55;100.00
74327;BME280;62745;51.060;13.786;2024-03-23T13:23:06;99316.28;;;5.50;100.00
74327;BME280;62745;51.060;13.786;2024-03-23T13:25:31;99313.47;;;5.52;100.00
74327;BME280;62745;51.060;13.786;2024-03-23T13:27:57;99335.66;;;5.65;100.00
74327;BME280;62745;51.060;13.786;2024-03-23T13:30:22;99356.22;;;5.63;100.00
74327;BME280;62745;51.060;13.786;2024-03-23T13:32:48;99357.03;;;5.64;100.00
74327;BME280;62745;51.060;13.786;2024-03-23T13:35:13;99355.59;;;5.76;100.00
74327;BME280;62745;51.060;13.786;2024-03-23T13:37:38;99338.38;;;5.87;100.00
74327;BME280;62745;51.060;13.786;2024-03-23T13:40:06;99352.66;;;6.00;100.00
74327;BME280;62745;51.060;13.786;2024-03-23T13:42:31;99363.06;;;6.17;100.00
74327;BME280;62745;51.060;13.786;2024-03-23T13:44:57;99341.41;;;6.13;100.00
74327;BME280;62745;51.060;13.786;2024-03-23T13:47:22;99333.25;;;6.29;100.00
74327;BME280;62745;51.060;13.786;2024-03-23T13:49:48;99334.09;;;6.51;100.00
74327;BME280;62745;51.060;13.786;2024-03-23T13:52:14;99312.78;;;7.09;100.00
74327;BME280;62745;51.060;13.786;2024-03-23T13:54:40;99297.41;;;8.14;100.00
74327;BME280;62745;51.060;13.786;2024-03-23T13:57:11;99310.09;;;8.12;94.62
74327;BME280;62745;51.060;13.786;2024-03-23T13:59:37;99316.22;;;8.20;94.32
74327;BME280;62745;51.060;13.786;2024-03-23T14:02:02;99300.75;;;7.89;98.41
74327;BME280;62745;51.060;13.786;2024-03-23T14:04:28;99296.19;;;7.69;96.60